Lasara, Texas
Current Conditions -  °F | °C
As of 8:35 AM on Tuesday 21 Oct 2014 (Local Time) from KEBG Reporting Station
Haze Haze  
Wind Chill: 73°   Ceiling: 6000
Heat Index: 73°   Visibility: 5mi
Dew Point: 70°   Wind: 7mph
Humidity: 91%   Direction: 20°NNE
Pressure: 29.97"   Gusts: NA
Location:  26.47°N, 97.91°W
Report Text: KEBG 211335Z AUTO 02006KT 5SM BR SCT046 OVC060 23/21 A2997 RMK AO2 T02280213
Loading
Personal Weather Stations






























Interactive Weather Map
Tropical Storm Tracking
New forecast layout! Learn more

10-Day Weather Forecast

Advertisements
Track Severe Weather on mobile